sensor_id;sensor_type;location;lat;lon;timestamp;P1;durP1;ratioP1;P2;durP2;ratioP2
37777;SDS011;23615;51.506;7.678;2023-04-29T00:02:11;14.73;;;12.07;;
37777;SDS011;23615;51.506;7.678;2023-04-29T00:04:36;14.90;;;12.33;;
37777;SDS011;23615;51.506;7.678;2023-04-29T00:07:01;15.97;;;12.43;;
37777;SDS011;23615;51.506;7.678;2023-04-29T00:09:27;16.93;;;13.50;;
37777;SDS011;23615;51.506;7.678;2023-04-29T00:11:52;19.50;;;14.13;;
37777;SDS011;23615;51.506;7.678;2023-04-29T00:14:17;19.03;;;14.93;;
37777;SDS011;23615;51.506;7.678;2023-04-29T00:16:43;19.30;;;15.00;;
37777;SDS011;23615;51.506;7.678;2023-04-29T00:19:08;20.03;;;14.80;;
37777;SDS011;23615;51.506;7.678;2023-04-29T00:21:33;18.60;;;14.83;;
37777;SDS011;23615;51.506;7.678;2023-04-29T00:23:59;21.43;;;15.00;;
37777;SDS011;23615;51.506;7.678;2023-04-29T00:26:24;20.23;;;16.00;;
37777;SDS011;23615;51.506;7.678;2023-04-29T00:28:49;22.50;;;17.17;;
37777;SDS011;23615;51.506;7.678;2023-04-29T00:31:15;19.70;;;15.80;;
37777;SDS011;23615;51.506;7.678;2023-04-29T00:33:40;22.90;;;17.57;;
37777;SDS011;23615;51.506;7.678;2023-04-29T00:36:06;24.20;;;17.80;;
37777;SDS011;23615;51.506;7.678;2023-04-29T00:38:32;22.83;;;17.48;;
37777;SDS011;23615;51.506;7.678;2023-04-29T00:40:57;21.90;;;16.77;;
37777;SDS011;23615;51.506;7.678;2023-04-29T00:43:23;22.23;;;17.80;;
37777;SDS011;23615;51.506;7.678;2023-04-29T00:45:48;20.13;;;17.23;;
37777;SDS011;23615;51.506;7.678;2023-04-29T00:48:14;20.90;;;17.17;;
37777;SDS011;23615;51.506;7.678;2023-04-29T00:50:40;23.27;;;17.30;;
37777;SDS011;23615;51.506;7.678;2023-04-29T00:53:06;23.77;;;19.07;;
37777;SDS011;23615;51.506;7.678;2023-04-29T00:55:32;24.80;;;18.48;;
37777;SDS011;23615;51.506;7.678;2023-04-29T00:57:57;27.37;;;19.53;;
37777;SDS011;23615;51.506;7.678;2023-04-29T01:00:23;26.47;;;18.97;;
37777;SDS011;23615;51.506;7.678;2023-04-29T01:02:50;24.98;;;18.60;;
37777;SDS011;23615;51.506;7.678;2023-04-29T01:05:18;24.77;;;18.63;;
37777;SDS011;23615;51.506;7.678;2023-04-29T01:07:50;26.33;;;18.57;;
37777;SDS011;23615;51.506;7.678;2023-04-29T01:10:48;25.23;;;18.90;;
37777;SDS011;23615;51.506;7.678;2023-04-29T01:13:33;25.23;;;18.05;;
37777;SDS011;23615;51.506;7.678;2023-04-29T01:16:07;26.05;;;18.83;;
37777;SDS011;23615;51.506;7.678;2023-04-29T01:18:48;28.20;;;19.92;;
37777;SDS011;23615;51.506;7.678;2023-04-29T01:21:18;27.50;;;20.17;;
37777;SDS011;23615;51.506;7.678;2023-04-29T01:23:44;29.40;;;20.13;;
37777;SDS011;23615;51.506;7.678;2023-04-29T01:26:09;29.97;;;20.73;;
37777;SDS011;23615;51.506;7.678;2023-04-29T01:31:43;28.83;;;20.27;;
37777;SDS011;23615;51.506;7.678;2023-04-29T01:34:21;30.17;;;21.75;;
37777;SDS011;23615;51.506;7.678;2023-04-29T01:36:52;31.83;;;20.98;;
37777;SDS011;23615;51.506;7.678;2023-04-29T01:42:22;33.10;;;20.95;;
37777;SDS011;23615;51.506;7.678;2023-04-29T01:44:52;35.70;;;21.60;;
37777;SDS011;23615;51.506;7.678;2023-04-29T01:47:19;35.60;;;23.33;;
37777;SDS011;23615;51.506;7.678;2023-04-29T01:49:45;38.05;;;23.42;;
37777;SDS011;23615;51.506;7.678;2023-04-29T01:52:11;38.53;;;23.17;;
37777;SDS011;23615;51.506;7.678;2023-04-29T01:54:37;38.25;;;22.88;;
37777;SDS011;23615;51.506;7.678;2023-04-29T01:57:02;36.25;;;23.77;;
37777;SDS011;23615;51.506;7.678;2023-04-29T01:59:28;40.08;;;24.10;;
37777;SDS011;23615;51.506;7.678;2023-04-29T02:01:54;38.50;;;23.45;;
37777;SDS011;23615;51.506;7.678;2023-04-29T02:04:21;39.30;;;23.25;;
37777;SDS011;23615;51.506;7.678;2023-04-29T02:06:46;39.80;;;24.80;;
37777;SDS011;23615;51.506;7.678;2023-04-29T02:09:11;38.70;;;24.97;;
37777;SDS011;23615;51.506;7.678;2023-04-29T02:11:36;39.27;;;23.87;;
37777;SDS011;23615;51.506;7.678;2023-04-29T02:14:02;37.70;;;23.50;;
37777;SDS011;23615;51.506;7.678;2023-04-29T02:16:27;36.33;;;23.30;;
37777;SDS011;23615;51.506;7.678;2023-04-29T02:18:52;37.85;;;23.77;;
37777;SDS011;23615;51.506;7.678;2023-04-29T02:21:17;36.43;;;22.23;;
37777;SDS011;23615;51.506;7.678;2023-04-29T02:23:43;36.83;;;22.53;;
37777;SDS011;23615;51.506;7.678;2023-04-29T02:26:08;35.00;;;22.47;;
37777;SDS011;23615;51.506;7.678;2023-04-29T02:28:34;35.28;;;21.90;;
37777;SDS011;23615;51.506;7.678;2023-04-29T02:31:00;36.42;;;24.17;;
37777;SDS011;23615;51.506;7.678;2023-04-29T02:33:26;35.10;;;22.27;;
37777;SDS011;23615;51.506;7.678;2023-04-29T02:35:51;37.73;;;24.17;;
37777;SDS011;23615;51.506;7.678;2023-04-29T02:38:16;38.83;;;24.70;;
37777;SDS011;23615;51.506;7.678;2023-04-29T02:40:42;41.23;;;24.67;;
37777;SDS011;23615;51.506;7.678;2023-04-29T02:43:08;48.88;;;29.52;;
37777;SDS011;23615;51.506;7.678;2023-04-29T02:45:34;60.47;;;33.83;;
37777;SDS011;23615;51.506;7.678;2023-04-29T02:48:00;65.32;;;34.97;;
37777;SDS011;23615;51.506;7.678;2023-04-29T02:50:25;68.03;;;37.20;;
37777;SDS011;23615;51.506;7.678;2023-04-29T02:52:51;72.28;;;36.92;;
37777;SDS011;23615;51.506;7.678;2023-04-29T02:55:16;68.15;;;36.17;;
37777;SDS011;23615;51.506;7.678;2023-04-29T02:57:42;68.87;;;35.60;;
37777;SDS011;23615;51.506;7.678;2023-04-29T03:00:08;65.80;;;35.90;;
37777;SDS011;23615;51.506;7.678;2023-04-29T03:02:34;62.65;;;35.35;;
37777;SDS011;23615;51.506;7.678;2023-04-29T03:04:59;64.07;;;35.60;;
37777;SDS011;23615;51.506;7.678;2023-04-29T03:07:24;64.78;;;34.72;;
37777;SDS011;23615;51.506;7.678;2023-04-29T03:09:49;62.60;;;34.10;;
37777;SDS011;23615;51.506;7.678;2023-04-29T03:12:15;60.90;;;34.30;;
37777;SDS011;23615;51.506;7.678;2023-04-29T03:14:40;54.50;;;30.90;;
37777;SDS011;23615;51.506;7.678;2023-04-29T03:17:06;53.75;;;29.33;;
37777;SDS011;23615;51.506;7.678;2023-04-29T03:19:31;47.05;;;27.02;;
37777;SDS011;23615;51.506;7.678;2023-04-29T03:21:57;43.23;;;25.70;;
37777;SDS011;23615;51.506;7.678;2023-04-29T03:24:22;42.07;;;24.73;;
37777;SDS011;23615;51.506;7.678;2023-04-29T03:26:47;46.00;;;24.83;;
37777;SDS011;23615;51.506;7.678;2023-04-29T03:29:12;41.43;;;23.40;;
37777;SDS011;23615;51.506;7.678;2023-04-29T03:31:38;35.30;;;21.23;;
37777;SDS011;23615;51.506;7.678;2023-04-29T03:34:03;36.25;;;22.08;;
37777;SDS011;23615;51.506;7.678;2023-04-29T03:36:28;38.27;;;23.60;;
37777;SDS011;23615;51.506;7.678;2023-04-29T03:38:54;42.03;;;23.57;;
37777;SDS011;23615;51.506;7.678;2023-04-29T03:41:19;37.93;;;22.73;;
37777;SDS011;23615;51.506;7.678;2023-04-29T03:43:44;39.00;;;24.03;;
37777;SDS011;23615;51.506;7.678;2023-04-29T03:46:10;42.83;;;25.33;;
37777;SDS011;23615;51.506;7.678;2023-04-29T03:48:35;41.37;;;24.20;;
37777;SDS011;23615;51.506;7.678;2023-04-29T03:51:01;42.75;;;24.98;;
37777;SDS011;23615;51.506;7.678;2023-04-29T03:53:27;38.67;;;22.92;;
37777;SDS011;23615;51.506;7.678;2023-04-29T03:55:52;34.73;;;22.03;;
37777;SDS011;23615;51.506;7.678;2023-04-29T03:58:18;31.40;;;20.13;;
37777;SDS011;23615;51.506;7.678;2023-04-29T04:00:43;32.10;;;20.23;;
37777;SDS011;23615;51.506;7.678;2023-04-29T04:03:09;29.83;;;19.00;;
37777;SDS011;23615;51.506;7.678;2023-04-29T04:05:34;30.53;;;19.53;;
37777;SDS011;23615;51.506;7.678;2023-04-29T04:07:59;30.50;;;18.97;;
37777;SDS011;23615;51.506;7.678;2023-04-29T04:10:25;30.00;;;19.57;;
37777;SDS011;23615;51.506;7.678;2023-04-29T04:12:52;28.37;;;19.40;;
37777;SDS011;23615;51.506;7.678;2023-04-29T04:15:17;28.80;;;18.73;;
37777;SDS011;23615;51.506;7.678;2023-04-29T04:17:42;28.23;;;18.00;;
37777;SDS011;23615;51.506;7.678;2023-04-29T04:20:08;29.93;;;19.20;;
37777;SDS011;23615;51.506;7.678;2023-04-29T04:22:33;28.30;;;18.67;;
37777;SDS011;23615;51.506;7.678;2023-04-29T04:24:59;27.50;;;18.77;;
37777;SDS011;23615;51.506;7.678;2023-04-29T04:27:24;28.93;;;18.77;;
37777;SDS011;23615;51.506;7.678;2023-04-29T04:29:53;27.03;;;18.10;;
37777;SDS011;23615;51.506;7.678;2023-04-29T04:32:19;26.83;;;18.73;;
37777;SDS011;23615;51.506;7.678;2023-04-29T04:34:45;31.63;;;20.42;;
37777;SDS011;23615;51.506;7.678;2023-04-29T04:37:12;31.20;;;20.60;;
37777;SDS011;23615;51.506;7.678;2023-04-29T04:39:37;31.50;;;20.93;;
37777;SDS011;23615;51.506;7.678;2023-04-29T04:42:03;32.97;;;21.50;;
37777;SDS011;23615;51.506;7.678;2023-04-29T04:44:28;34.43;;;21.23;;
37777;SDS011;23615;51.506;7.678;2023-04-29T04:46:54;33.22;;;21.55;;
37777;SDS011;23615;51.506;7.678;2023-04-29T04:49:19;34.10;;;21.77;;
37777;SDS011;23615;51.506;7.678;2023-04-29T04:51:44;32.80;;;21.33;;
37777;SDS011;23615;51.506;7.678;2023-04-29T04:54:10;33.07;;;20.47;;
37777;SDS011;23615;51.506;7.678;2023-04-29T04:56:36;32.93;;;21.03;;
37777;SDS011;23615;51.506;7.678;2023-04-29T04:59:02;31.40;;;20.92;;
37777;SDS011;23615;51.506;7.678;2023-04-29T05:01:27;33.17;;;21.92;;
37777;SDS011;23615;51.506;7.678;2023-04-29T05:03:53;30.10;;;20.70;;
37777;SDS011;23615;51.506;7.678;2023-04-29T05:06:18;30.97;;;20.20;;
37777;SDS011;23615;51.506;7.678;2023-04-29T05:08:43;32.07;;;20.77;;
37777;SDS011;23615;51.506;7.678;2023-04-29T05:11:15;31.30;;;20.70;;
37777;SDS011;23615;51.506;7.678;2023-04-29T05:13:42;29.90;;;20.10;;
37777;SDS011;23615;51.506;7.678;2023-04-29T05:16:07;29.43;;;19.40;;
37777;SDS011;23615;51.506;7.678;2023-04-29T05:18:32;32.77;;;20.97;;
37777;SDS011;23615;51.506;7.678;2023-04-29T05:20:58;31.77;;;20.53;;
37777;SDS011;23615;51.506;7.678;2023-04-29T05:23:24;33.23;;;20.93;;
37777;SDS011;23615;51.506;7.678;2023-04-29T05:25:49;32.72;;;21.42;;
37777;SDS011;23615;51.506;7.678;2023-04-29T05:28:14;29.23;;;19.63;;
37777;SDS011;23615;51.506;7.678;2023-04-29T05:30:40;30.47;;;21.40;;
37777;SDS011;23615;51.506;7.678;2023-04-29T05:33:05;32.20;;;22.00;;
37777;SDS011;23615;51.506;7.678;2023-04-29T05:35:30;31.77;;;20.77;;
37777;SDS011;23615;51.506;7.678;2023-04-29T05:37:56;30.97;;;21.97;;
37777;SDS011;23615;51.506;7.678;2023-04-29T05:40:21;29.63;;;20.50;;
37777;SDS011;23615;51.506;7.678;2023-04-29T05:42:47;32.00;;;21.07;;
37777;SDS011;23615;51.506;7.678;2023-04-29T05:45:13;29.25;;;20.00;;
37777;SDS011;23615;51.506;7.678;2023-04-29T05:47:38;31.20;;;21.33;;
37777;SDS011;23615;51.506;7.678;2023-04-29T05:50:04;28.97;;;20.67;;
37777;SDS011;23615;51.506;7.678;2023-04-29T05:52:30;30.30;;;20.60;;
37777;SDS011;23615;51.506;7.678;2023-04-29T05:54:55;25.70;;;19.17;;
37777;SDS011;23615;51.506;7.678;2023-04-29T05:57:20;27.87;;;20.47;;
37777;SDS011;23615;51.506;7.678;2023-04-29T05:59:46;28.33;;;20.30;;
37777;SDS011;23615;51.506;7.678;2023-04-29T06:02:11;29.07;;;19.97;;
37777;SDS011;23615;51.506;7.678;2023-04-29T06:04:36;27.50;;;19.70;;
37777;SDS011;23615;51.506;7.678;2023-04-29T06:07:02;29.83;;;20.43;;
37777;SDS011;23615;51.506;7.678;2023-04-29T06:09:29;29.60;;;22.00;;
37777;SDS011;23615;51.506;7.678;2023-04-29T06:11:54;28.40;;;20.17;;
37777;SDS011;23615;51.506;7.678;2023-04-29T06:14:20;28.33;;;19.63;;
37777;SDS011;23615;51.506;7.678;2023-04-29T06:16:45;29.27;;;20.92;;
37777;SDS011;23615;51.506;7.678;2023-04-29T06:19:11;26.73;;;19.73;;
37777;SDS011;23615;51.506;7.678;2023-04-29T06:21:36;26.43;;;19.17;;
37777;SDS011;23615;51.506;7.678;2023-04-29T06:24:02;28.93;;;19.53;;
37777;SDS011;23615;51.506;7.678;2023-04-29T06:26:27;24.40;;;18.13;;
37777;SDS011;23615;51.506;7.678;2023-04-29T06:28:52;24.87;;;18.13;;
37777;SDS011;23615;51.506;7.678;2023-04-29T06:31:18;26.60;;;19.33;;
37777;SDS011;23615;51.506;7.678;2023-04-29T06:33:44;26.30;;;19.85;;
37777;SDS011;23615;51.506;7.678;2023-04-29T06:36:10;26.97;;;19.77;;
37777;SDS011;23615;51.506;7.678;2023-04-29T06:38:36;25.70;;;19.83;;
37777;SDS011;23615;51.506;7.678;2023-04-29T06:41:01;25.13;;;19.60;;
37777;SDS011;23615;51.506;7.678;2023-04-29T06:43:31;28.88;;;21.27;;
37777;SDS011;23615;51.506;7.678;2023-04-29T06:45:57;30.60;;;22.35;;
37777;SDS011;23615;51.506;7.678;2023-04-29T06:48:22;29.97;;;22.27;;
37777;SDS011;23615;51.506;7.678;2023-04-29T06:50:51;30.37;;;23.17;;
37777;SDS011;23615;51.506;7.678;2023-04-29T06:53:17;25.85;;;20.17;;
37777;SDS011;23615;51.506;7.678;2023-04-29T06:55:43;26.90;;;20.63;;
37777;SDS011;23615;51.506;7.678;2023-04-29T06:58:10;27.58;;;21.00;;
37777;SDS011;23615;51.506;7.678;2023-04-29T07:00:36;29.95;;;21.50;;
37777;SDS011;23615;51.506;7.678;2023-04-29T07:03:01;27.50;;;20.90;;
37777;SDS011;23615;51.506;7.678;2023-04-29T07:05:26;28.80;;;20.93;;
37777;SDS011;23615;51.506;7.678;2023-04-29T07:07:52;28.67;;;21.87;;
37777;SDS011;23615;51.506;7.678;2023-04-29T07:10:17;26.13;;;20.23;;
37777;SDS011;23615;51.506;7.678;2023-04-29T07:12:42;28.77;;;21.60;;
37777;SDS011;23615;51.506;7.678;2023-04-29T07:15:08;29.90;;;23.23;;
37777;SDS011;23615;51.506;7.678;2023-04-29T07:17:33;30.93;;;22.77;;
37777;SDS011;23615;51.506;7.678;2023-04-29T07:19:58;31.73;;;23.43;;
37777;SDS011;23615;51.506;7.678;2023-04-29T07:22:24;38.10;;;26.37;;
37777;SDS011;23615;51.506;7.678;2023-04-29T07:24:52;43.37;;;26.93;;
37777;SDS011;23615;51.506;7.678;2023-04-29T07:27:17;48.65;;;30.85;;
37777;SDS011;23615;51.506;7.678;2023-04-29T07:29:43;46.53;;;30.45;;
37777;SDS011;23615;51.506;7.678;2023-04-29T07:32:08;48.90;;;30.47;;
37777;SDS011;23615;51.506;7.678;2023-04-29T07:34:33;51.60;;;33.40;;
37777;SDS011;23615;51.506;7.678;2023-04-29T07:36:59;49.43;;;31.60;;
37777;SDS011;23615;51.506;7.678;2023-04-29T07:39:24;53.10;;;33.60;;
37777;SDS011;23615;51.506;7.678;2023-04-29T07:41:50;52.10;;;33.77;;
37777;SDS011;23615;51.506;7.678;2023-04-29T07:44:16;55.00;;;35.67;;
37777;SDS011;23615;51.506;7.678;2023-04-29T07:46:41;58.00;;;36.90;;
37777;SDS011;23615;51.506;7.678;2023-04-29T07:49:06;54.50;;;35.60;;
37777;SDS011;23615;51.506;7.678;2023-04-29T07:51:31;48.00;;;32.90;;
37777;SDS011;23615;51.506;7.678;2023-04-29T07:53:57;40.73;;;28.87;;
37777;SDS011;23615;51.506;7.678;2023-04-29T07:56:22;37.63;;;26.77;;
37777;SDS011;23615;51.506;7.678;2023-04-29T07:58:47;32.40;;;23.97;;
37777;SDS011;23615;51.506;7.678;2023-04-29T08:01:12;31.33;;;23.63;;
37777;SDS011;23615;51.506;7.678;2023-04-29T08:03:39;31.40;;;22.05;;
37777;SDS011;23615;51.506;7.678;2023-04-29T08:06:05;29.63;;;21.10;;
37777;SDS011;23615;51.506;7.678;2023-04-29T08:08:30;31.70;;;21.93;;
37777;SDS011;23615;51.506;7.678;2023-04-29T08:10:56;31.50;;;22.10;;
37777;SDS011;23615;51.506;7.678;2023-04-29T08:13:22;30.52;;;22.08;;
37777;SDS011;23615;51.506;7.678;2023-04-29T08:15:47;35.37;;;24.23;;
37777;SDS011;23615;51.506;7.678;2023-04-29T08:18:12;33.78;;;23.67;;
37777;SDS011;23615;51.506;7.678;2023-04-29T08:20:38;34.80;;;25.05;;
37777;SDS011;23615;51.506;7.678;2023-04-29T08:23:03;36.13;;;25.33;;
37777;SDS011;23615;51.506;7.678;2023-04-29T08:25:28;34.53;;;24.87;;
37777;SDS011;23615;51.506;7.678;2023-04-29T08:27:54;38.07;;;25.60;;
37777;SDS011;23615;51.506;7.678;2023-04-29T08:30:20;42.85;;;27.52;;
37777;SDS011;23615;51.506;7.678;2023-04-29T08:32:45;39.90;;;26.43;;
37777;SDS011;23615;51.506;7.678;2023-04-29T08:35:10;41.37;;;27.10;;
37777;SDS011;23615;51.506;7.678;2023-04-29T08:37:36;44.63;;;28.93;;
37777;SDS011;23615;51.506;7.678;2023-04-29T08:40:01;46.90;;;29.30;;
37777;SDS011;23615;51.506;7.678;2023-04-29T08:42:34;38.73;;;27.53;;
37777;SDS011;23615;51.506;7.678;2023-04-29T08:45:01;45.47;;;29.45;;
37777;SDS011;23615;51.506;7.678;2023-04-29T08:47:31;44.67;;;29.05;;
37777;SDS011;23615;51.506;7.678;2023-04-29T08:50:00;47.92;;;30.35;;
37777;SDS011;23615;51.506;7.678;2023-04-29T08:52:28;50.25;;;31.02;;
37777;SDS011;23615;51.506;7.678;2023-04-29T08:54:53;48.70;;;30.80;;
37777;SDS011;23615;51.506;7.678;2023-04-29T08:57:20;46.67;;;31.08;;
37777;SDS011;23615;51.506;7.678;2023-04-29T08:59:47;51.58;;;33.10;;
37777;SDS011;23615;51.506;7.678;2023-04-29T09:02:12;51.13;;;31.27;;
37777;SDS011;23615;51.506;7.678;2023-04-29T09:04:59;47.33;;;30.45;;
37777;SDS011;23615;51.506;7.678;2023-04-29T09:07:30;53.80;;;32.13;;
37777;SDS011;23615;51.506;7.678;2023-04-29T09:09:57;49.38;;;31.60;;
37777;SDS011;23615;51.506;7.678;2023-04-29T09:12:23;45.67;;;29.98;;
37777;SDS011;23615;51.506;7.678;2023-04-29T09:14:48;48.73;;;30.87;;
37777;SDS011;23615;51.506;7.678;2023-04-29T09:17:14;46.97;;;30.97;;
37777;SDS011;23615;51.506;7.678;2023-04-29T09:19:40;45.63;;;31.58;;
37777;SDS011;23615;51.506;7.678;2023-04-29T09:22:06;52.63;;;32.90;;
37777;SDS011;23615;51.506;7.678;2023-04-29T09:24:32;48.70;;;32.22;;
37777;SDS011;23615;51.506;7.678;2023-04-29T09:26:58;47.92;;;31.10;;
37777;SDS011;23615;51.506;7.678;2023-04-29T09:29:24;48.65;;;32.03;;
37777;SDS011;23615;51.506;7.678;2023-04-29T09:31:50;46.35;;;32.08;;
37777;SDS011;23615;51.506;7.678;2023-04-29T09:34:18;43.75;;;29.48;;
37777;SDS011;23615;51.506;7.678;2023-04-29T09:36:55;47.38;;;31.80;;
37777;SDS011;23615;51.506;7.678;2023-04-29T09:39:23;41.38;;;29.08;;
37777;SDS011;23615;51.506;7.678;2023-04-29T09:44:21;40.55;;;28.70;;
37777;SDS011;23615;51.506;7.678;2023-04-29T09:46:55;45.20;;;31.30;;
37777;SDS011;23615;51.506;7.678;2023-04-29T09:49:31;42.20;;;30.20;;
37777;SDS011;23615;51.506;7.678;2023-04-29T09:52:00;41.92;;;29.17;;
37777;SDS011;23615;51.506;7.678;2023-04-29T09:54:27;40.00;;;29.33;;
37777;SDS011;23615;51.506;7.678;2023-04-29T09:56:54;38.35;;;28.83;;
37777;SDS011;23615;51.506;7.678;2023-04-29T09:59:22;35.45;;;26.73;;
37777;SDS011;23615;51.506;7.678;2023-04-29T10:01:49;36.25;;;27.27;;
37777;SDS011;23615;51.506;7.678;2023-04-29T10:04:16;37.00;;;26.67;;
37777;SDS011;23615;51.506;7.678;2023-04-29T10:06:47;39.53;;;26.40;;
37777;SDS011;23615;51.506;7.678;2023-04-29T10:09:15;34.33;;;25.47;;
37777;SDS011;23615;51.506;7.678;2023-04-29T10:11:43;32.70;;;24.83;;
37777;SDS011;23615;51.506;7.678;2023-04-29T10:14:11;37.97;;;26.20;;
37777;SDS011;23615;51.506;7.678;2023-04-29T10:16:58;32.30;;;24.33;;
37777;SDS011;23615;51.506;7.678;2023-04-29T10:19:51;34.63;;;25.20;;
37777;SDS011;23615;51.506;7.678;2023-04-29T10:22:26;31.55;;;23.17;;
37777;SDS011;23615;51.506;7.678;2023-04-29T10:24:57;33.08;;;24.25;;
37777;SDS011;23615;51.506;7.678;2023-04-29T10:27:25;34.55;;;25.10;;
37777;SDS011;23615;51.506;7.678;2023-04-29T10:29:52;30.77;;;24.70;;
37777;SDS011;23615;51.506;7.678;2023-04-29T10:32:20;32.40;;;24.58;;
37777;SDS011;23615;51.506;7.678;2023-04-29T10:34:47;31.77;;;23.85;;
37777;SDS011;23615;51.506;7.678;2023-04-29T10:37:16;30.70;;;24.55;;
37777;SDS011;23615;51.506;7.678;2023-04-29T10:39:47;29.67;;;23.05;;
37777;SDS011;23615;51.506;7.678;2023-04-29T10:43:03;29.17;;;23.30;;
37777;SDS011;23615;51.506;7.678;2023-04-29T10:45:17;28.83;;;22.70;;
37777;SDS011;23615;51.506;7.678;2023-04-29T10:53:01;26.63;;;21.55;;
37777;SDS011;23615;51.506;7.678;2023-04-29T10:55:27;26.08;;;21.40;;
37777;SDS011;23615;51.506;7.678;2023-04-29T10:57:53;27.07;;;21.40;;
37777;SDS011;23615;51.506;7.678;2023-04-29T11:00:24;21.87;;;18.13;;
37777;SDS011;23615;51.506;7.678;2023-04-29T11:02:52;19.10;;;17.02;;
37777;SDS011;23615;51.506;7.678;2023-04-29T11:05:28;27.00;;;20.08;;
37777;SDS011;23615;51.506;7.678;2023-04-29T11:08:09;20.53;;;18.23;;
37777;SDS011;23615;51.506;7.678;2023-04-29T11:10:46;24.63;;;19.88;;
37777;SDS011;23615;51.506;7.678;2023-04-29T11:13:28;25.57;;;19.30;;
37777;SDS011;23615;51.506;7.678;2023-04-29T11:16:07;22.55;;;19.02;;
37777;SDS011;23615;51.506;7.678;2023-04-29T11:18:36;21.85;;;18.80;;
37777;SDS011;23615;51.506;7.678;2023-04-29T11:21:30;22.20;;;19.08;;
37777;SDS011;23615;51.506;7.678;2023-04-29T11:23:56;19.88;;;17.38;;
37777;SDS011;23615;51.506;7.678;2023-04-29T11:26:22;23.63;;;19.10;;
37777;SDS011;23615;51.506;7.678;2023-04-29T11:28:48;19.48;;;15.77;;
37777;SDS011;23615;51.506;7.678;2023-04-29T11:31:16;22.25;;;18.77;;
37777;SDS011;23615;51.506;7.678;2023-04-29T11:33:41;21.50;;;18.05;;
37777;SDS011;23615;51.506;7.678;2023-04-29T11:36:08;18.30;;;16.38;;
37777;SDS011;23615;51.506;7.678;2023-04-29T11:38:35;21.27;;;16.83;;
37777;SDS011;23615;51.506;7.678;2023-04-29T11:41:05;19.23;;;16.77;;
37777;SDS011;23615;51.506;7.678;2023-04-29T11:43:30;20.17;;;17.13;;
37777;SDS011;23615;51.506;7.678;2023-04-29T11:45:56;17.75;;;15.65;;
37777;SDS011;23615;51.506;7.678;2023-04-29T11:48:22;19.57;;;17.03;;
37777;SDS011;23615;51.506;7.678;2023-04-29T11:50:49;18.23;;;16.15;;
37777;SDS011;23615;51.506;7.678;2023-04-29T11:53:20;17.73;;;15.82;;
37777;SDS011;23615;51.506;7.678;2023-04-29T11:55:47;16.65;;;14.90;;
37777;SDS011;23615;51.506;7.678;2023-04-29T11:58:15;19.57;;;17.13;;
37777;SDS011;23615;51.506;7.678;2023-04-29T12:00:41;15.65;;;13.85;;
37777;SDS011;23615;51.506;7.678;2023-04-29T12:03:15;12.77;;;11.48;;
37777;SDS011;23615;51.506;7.678;2023-04-29T12:05:49;16.25;;;14.48;;
37777;SDS011;23615;51.506;7.678;2023-04-29T12:08:19;17.77;;;15.68;;
37777;SDS011;23615;51.506;7.678;2023-04-29T12:10:46;17.02;;;14.93;;
37777;SDS011;23615;51.506;7.678;2023-04-29T12:13:11;16.35;;;14.65;;
37777;SDS011;23615;51.506;7.678;2023-04-29T12:15:37;18.02;;;16.13;;
37777;SDS011;23615;51.506;7.678;2023-04-29T12:18:03;19.83;;;15.65;;
37777;SDS011;23615;51.506;7.678;2023-04-29T12:20:28;17.90;;;15.10;;
37777;SDS011;23615;51.506;7.678;2023-04-29T12:22:54;16.23;;;14.60;;
37777;SDS011;23615;51.506;7.678;2023-04-29T12:25:23;20.63;;;15.20;;
37777;SDS011;23615;51.506;7.678;2023-04-29T12:27:49;18.25;;;15.13;;
37777;SDS011;23615;51.506;7.678;2023-04-29T12:30:15;18.33;;;16.10;;
37777;SDS011;23615;51.506;7.678;2023-04-29T12:32:40;17.92;;;15.07;;
37777;SDS011;23615;51.506;7.678;2023-04-29T12:35:13;16.97;;;14.33;;
37777;SDS011;23615;51.506;7.678;2023-04-29T12:37:40;19.73;;;15.23;;
37777;SDS011;23615;51.506;7.678;2023-04-29T12:40:06;16.87;;;14.80;;
37777;SDS011;23615;51.506;7.678;2023-04-29T12:42:32;17.83;;;14.18;;
37777;SDS011;23615;51.506;7.678;2023-04-29T12:45:00;17.70;;;15.35;;
37777;SDS011;23615;51.506;7.678;2023-04-29T12:47:30;16.47;;;14.60;;
37777;SDS011;23615;51.506;7.678;2023-04-29T12:49:57;16.98;;;14.30;;
37777;SDS011;23615;51.506;7.678;2023-04-29T12:52:22;17.63;;;14.60;;
37777;SDS011;23615;51.506;7.678;2023-04-29T12:54:48;17.80;;;14.10;;
37777;SDS011;23615;51.506;7.678;2023-04-29T12:57:13;16.38;;;14.35;;
37777;SDS011;23615;51.506;7.678;2023-04-29T12:59:38;15.23;;;13.07;;
37777;SDS011;23615;51.506;7.678;2023-04-29T13:02:05;16.15;;;14.23;;
37777;SDS011;23615;51.506;7.678;2023-04-29T13:04:30;16.03;;;13.17;;
37777;SDS011;23615;51.506;7.678;2023-04-29T13:06:55;12.57;;;11.27;;
37777;SDS011;23615;51.506;7.678;2023-04-29T13:09:27;14.85;;;13.18;;
37777;SDS011;23615;51.506;7.678;2023-04-29T13:11:52;15.60;;;13.48;;
37777;SDS011;23615;51.506;7.678;2023-04-29T13:14:18;15.53;;;13.80;;
37777;SDS011;23615;51.506;7.678;2023-04-29T13:16:44;15.13;;;13.53;;
37777;SDS011;23615;51.506;7.678;2023-04-29T13:19:10;14.70;;;12.80;;
37777;SDS011;23615;51.506;7.678;2023-04-29T13:21:35;14.50;;;13.02;;
37777;SDS011;23615;51.506;7.678;2023-04-29T13:24:02;14.98;;;13.05;;
37777;SDS011;23615;51.506;7.678;2023-04-29T13:26:27;14.20;;;12.70;;
37777;SDS011;23615;51.506;7.678;2023-04-29T13:28:53;13.60;;;12.20;;
37777;SDS011;23615;51.506;7.678;2023-04-29T13:31:18;16.33;;;13.50;;
37777;SDS011;23615;51.506;7.678;2023-04-29T13:33:43;14.93;;;13.33;;
37777;SDS011;23615;51.506;7.678;2023-04-29T13:36:09;14.82;;;12.80;;
37777;SDS011;23615;51.506;7.678;2023-04-29T13:38:34;13.15;;;11.75;;
37777;SDS011;23615;51.506;7.678;2023-04-29T13:41:00;12.85;;;11.55;;
37777;SDS011;23615;51.506;7.678;2023-04-29T13:43:25;14.00;;;12.43;;
37777;SDS011;23615;51.506;7.678;2023-04-29T13:45:51;15.63;;;13.20;;
37777;SDS011;23615;51.506;7.678;2023-04-29T13:48:16;14.37;;;12.83;;
37777;SDS011;23615;51.506;7.678;2023-04-29T13:50:43;13.20;;;11.85;;
37777;SDS011;23615;51.506;7.678;2023-04-29T13:53:09;12.98;;;11.55;;
37777;SDS011;23615;51.506;7.678;2023-04-29T13:55:34;14.13;;;12.63;;
37777;SDS011;23615;51.506;7.678;2023-04-29T13:58:00;14.83;;;12.67;;
37777;SDS011;23615;51.506;7.678;2023-04-29T14:00:25;11.90;;;10.70;;
37777;SDS011;23615;51.506;7.678;2023-04-29T14:02:51;15.03;;;12.97;;
37777;SDS011;23615;51.506;7.678;2023-04-29T14:05:16;14.33;;;12.93;;
37777;SDS011;23615;51.506;7.678;2023-04-29T14:07:42;14.13;;;12.77;;
37777;SDS011;23615;51.506;7.678;2023-04-29T14:10:07;14.50;;;12.97;;
37777;SDS011;23615;51.506;7.678;2023-04-29T14:12:32;14.35;;;12.63;;
37777;SDS011;23615;51.506;7.678;2023-04-29T14:14:58;15.10;;;12.82;;
37777;SDS011;23615;51.506;7.678;2023-04-29T14:17:23;13.47;;;12.07;;
37777;SDS011;23615;51.506;7.678;2023-04-29T14:19:48;14.73;;;12.33;;
37777;SDS011;23615;51.506;7.678;2023-04-29T14:22:16;12.80;;;11.52;;
37777;SDS011;23615;51.506;7.678;2023-04-29T14:24:42;12.47;;;11.00;;
37777;SDS011;23615;51.506;7.678;2023-04-29T14:27:10;14.90;;;12.67;;
37777;SDS011;23615;51.506;7.678;2023-04-29T14:29:35;13.95;;;12.43;;
37777;SDS011;23615;51.506;7.678;2023-04-29T14:32:00;13.05;;;11.75;;
37777;SDS011;23615;51.506;7.678;2023-04-29T14:34:33;13.60;;;12.20;;